SBOSBO CFU / LGKR
Speedbird OnlineSpeedbird Online CFU / LGKR

Ioannis Kapodistrias International Airport
19:45 36°C

Location Kerkyra/corfu, Greece
Latitude: 39.601898193359375
Longitude: 19.911699295043945
Local Time 19:45 on 20 Jun 2024
UTC +3 hours (Europe/Athens)
Currency £1 equals EUR 1.18
METAR LGKR 201620Z 28007KT CAVOK 36/21 Q1011 NOSIG
TAF TAF LGKR 201100Z 2012/2112 30010KT CAVOK BECMG 2016/2018 VRB05KT BECMG 2109/2111 30012KT
Weather As Of 20 Jun 2024 19:45
Description Clear sky
Wind 13 km/h from West (280°)
Cloud Cover 0%
Precipitation Rain: none, Snow: none
Sunrise 06:12
Sunset 21:11
NOTAM 11 active NOTAM
Rotations During the last 90 days there were
77 flights from LHR
25 flights from LGW
74 flights to LHR
30 flights to LGW
1 flights to BRU
Web Wikipedia
Codes IATA: CFU
ICAO: LGKR
Altitude 2 Meter / 6 Feet
Distance 2,020 KM / 1,255 Miles
from London.
Runways
RunwayLength (m)Surface
162375Asphalt
342375Asphalt
Radio
TypeDescriptionFrequency
A/GKERKIRA RDO563.7
APPKERKIRA APP118.075
ATISATIS126.35
TWRKERKIRA TWR120.85
Live ATC



Support Speedbird Online

© 2017-2024 Speedbird Online